createdAt,value
2018-07-13T00:02:15.525Z,11.50
2018-07-13T00:04:47.399Z,11.40
2018-07-13T00:07:18.724Z,11.40
2018-07-13T00:09:51.359Z,11.20
2018-07-13T00:12:23.842Z,11.10
2018-07-13T00:17:38.696Z,11.10
2018-07-13T00:20:10.103Z,11.20
2018-07-13T00:25:12.307Z,11.20
2018-07-13T00:27:43.777Z,11.30
2018-07-13T00:30:16.271Z,11.30
2018-07-13T00:32:47.982Z,11.20
2018-07-13T00:40:21.424Z,11.10
2018-07-13T00:42:53.464Z,11.10
2018-07-13T00:45:25.347Z,11.00
2018-07-13T00:47:57.548Z,11.00
2018-07-13T00:50:29.899Z,11.00
2018-07-13T00:53:01.926Z,10.90
2018-07-13T00:55:34.569Z,10.80
2018-07-13T00:58:06.345Z,10.60
2018-07-13T01:00:38.386Z,10.60
2018-07-13T01:03:09.706Z,10.50
2018-07-13T01:05:41.326Z,10.60
2018-07-13T01:08:16.162Z,10.80
2018-07-13T01:10:48.131Z,10.80
2018-07-13T01:13:20.265Z,10.80
2018-07-13T01:15:52.117Z,10.80
2018-07-13T01:18:25.382Z,10.70
2018-07-13T01:23:31.511Z,10.70
2018-07-13T01:26:04.108Z,10.70
2018-07-13T01:28:36.813Z,10.70
2018-07-13T01:31:09.366Z,10.70
2018-07-13T01:33:41.839Z,10.70
2018-07-13T01:38:46.068Z,11.00
2018-07-13T01:41:18.557Z,11.20
2018-07-13T01:43:57.832Z,11.40
2018-07-13T01:46:29.228Z,11.40
2018-07-13T01:49:00.258Z,11.60
2018-07-13T01:51:31.900Z,11.60
2018-07-13T01:54:04.424Z,11.70
2018-07-13T01:56:37.482Z,11.60
2018-07-13T01:59:10.355Z,11.50
2018-07-13T02:01:43.365Z,11.40
2018-07-13T02:04:15.878Z,11.30
2018-07-13T02:06:48.783Z,11.20
2018-07-13T02:11:53.546Z,11.30
2018-07-13T02:14:26.527Z,11.20
2018-07-13T02:16:59.432Z,11.10
2018-07-13T02:19:32.067Z,11.00
2018-07-13T02:22:04.407Z,11.00
2018-07-13T02:24:37.426Z,11.00
2018-07-13T02:27:10.728Z,10.90
2018-07-13T02:29:42.595Z,10.90
2018-07-13T02:34:50.133Z,10.90
2018-07-13T02:37:31.105Z,10.90
2018-07-13T02:40:14.896Z,10.80
2018-07-13T02:42:50.069Z,10.70
2018-07-13T02:45:24.070Z,10.80
2018-07-13T02:48:02.546Z,10.60
2018-07-13T02:50:34.604Z,10.60
2018-07-13T02:53:07.077Z,10.50
2018-07-13T02:55:39.361Z,10.30
2018-07-13T02:58:10.297Z,10.20
2018-07-13T03:00:42.026Z,10.20
2018-07-13T03:03:13.200Z,10.20
2018-07-13T03:08:11.774Z,9.90
2018-07-13T03:10:40.787Z,9.90
2018-07-13T03:13:09.558Z,10.00
2018-07-13T03:15:38.179Z,10.00
2018-07-13T03:18:06.757Z,10.10
2018-07-13T03:20:35.266Z,10.00
2018-07-13T03:23:03.570Z,10.00
2018-07-13T03:28:00.893Z,10.10
2018-07-13T03:30:29.468Z,10.10
2018-07-13T03:32:57.744Z,10.20
2018-07-13T03:35:25.880Z,10.20
2018-07-13T03:37:54.440Z,10.20
2018-07-13T03:40:22.761Z,10.20
2018-07-13T03:42:51.043Z,10.20
2018-07-13T03:45:19.301Z,10.10
2018-07-13T03:50:17.653Z,10.20
2018-07-13T03:52:45.708Z,10.10
2018-07-13T03:55:13.858Z,10.10
2018-07-13T03:57:42.163Z,10.20
2018-07-13T04:00:10.264Z,10.70
2018-07-13T04:02:38.326Z,11.50
2018-07-13T04:05:06.490Z,12.20
2018-07-13T04:07:34.659Z,12.90
2018-07-13T04:10:02.908Z,13.60
2018-07-13T04:14:59.086Z,14.70
2018-07-13T04:17:27.262Z,15.10
2018-07-13T04:19:55.327Z,15.40
2018-07-13T04:22:23.601Z,15.90
2018-07-13T04:24:51.882Z,16.60
2018-07-13T04:27:20.280Z,17.00
2018-07-13T04:29:48.543Z,17.30
2018-07-13T04:32:16.633Z,17.30
2018-07-13T04:34:44.880Z,17.60
2018-07-13T04:37:13.089Z,17.70
2018-07-13T04:39:41.131Z,17.90
2018-07-13T04:42:09.604Z,18.30
2018-07-13T04:44:37.702Z,18.60
2018-07-13T04:47:05.970Z,19.20
2018-07-13T04:49:34.256Z,20.00
2018-07-13T04:52:02.516Z,20.30
2018-07-13T04:54:30.996Z,20.60
2018-07-13T04:56:59.320Z,20.80
2018-07-13T04:59:27.567Z,20.90
2018-07-13T05:01:55.955Z,20.90
2018-07-13T05:04:24.205Z,20.90
2018-07-13T05:06:52.619Z,21.60
2018-07-13T05:09:20.890Z,22.30
2018-07-13T05:11:49.176Z,22.20
2018-07-13T05:14:17.312Z,22.50
2018-07-13T05:16:45.416Z,22.60
2018-07-13T05:19:13.505Z,22.30
2018-07-13T05:21:41.748Z,22.40
2018-07-13T05:24:10.132Z,22.40
2018-07-13T05:26:38.405Z,22.70
2018-07-13T05:29:06.692Z,22.70
2018-07-13T05:31:35.064Z,22.80
2018-07-13T05:34:03.460Z,23.10
2018-07-13T05:36:31.738Z,22.90
2018-07-13T05:39:00.045Z,23.10
2018-07-13T05:41:28.414Z,23.30
2018-07-13T05:43:56.544Z,23.40
2018-07-13T05:48:52.808Z,23.20
2018-07-13T05:51:21.244Z,23.00
2018-07-13T05:53:49.461Z,22.90
2018-07-13T05:56:17.773Z,24.10
2018-07-13T05:58:46.007Z,24.40
2018-07-13T06:06:10.023Z,24.40
2018-07-13T06:11:06.410Z,24.50
2018-07-13T06:13:34.572Z,24.00
2018-07-13T06:16:02.731Z,22.30
2018-07-13T06:18:30.790Z,21.00
2018-07-13T06:23:26.867Z,19.60
2018-07-13T06:25:55.036Z,19.30
2018-07-13T06:28:23.226Z,19.20
2018-07-13T06:30:51.364Z,19.20
2018-07-13T06:35:47.422Z,19.20
2018-07-13T06:38:15.534Z,19.30
2018-07-13T06:40:44.030Z,19.40
2018-07-13T06:43:12.144Z,19.50
2018-07-13T06:45:41.021Z,19.60
2018-07-13T06:50:38.157Z,19.90
2018-07-13T06:53:06.715Z,19.80
2018-07-13T06:55:34.792Z,20.10
2018-07-13T06:58:14.216Z,20.20
2018-07-13T07:01:04.388Z,20.30
2018-07-13T07:06:10.545Z,20.50
2018-07-13T07:08:40.317Z,20.50
2018-07-13T07:11:08.666Z,20.80
2018-07-13T07:16:05.986Z,20.90
2018-07-13T07:18:34.443Z,20.90
2018-07-13T07:21:02.792Z,20.80
2018-07-13T07:23:31.427Z,20.90
2018-07-13T07:26:00.611Z,21.00
2018-07-13T07:28:29.136Z,21.10
2018-07-13T07:30:58.119Z,21.30
2018-07-13T07:33:26.340Z,21.40
2018-07-13T07:40:50.498Z,21.70
2018-07-13T07:43:19.338Z,21.80
2018-07-13T07:48:15.300Z,22.00
2018-07-13T07:50:43.695Z,22.30
2018-07-13T07:53:12.014Z,22.50
2018-07-13T07:55:40.266Z,22.50
2018-07-13T07:58:08.337Z,22.40
2018-07-13T08:00:36.495Z,22.40
2018-07-13T08:03:05.217Z,22.50
2018-07-13T08:05:33.347Z,22.70
2018-07-13T08:10:29.577Z,22.80
2018-07-13T08:15:25.574Z,22.70
2018-07-13T08:17:53.638Z,23.10
2018-07-13T08:20:29.007Z,23.20
2018-07-13T08:22:57.951Z,23.30
2018-07-13T08:25:26.863Z,23.20
2018-07-13T08:27:58.557Z,23.40
2018-07-13T08:30:34.680Z,23.20
2018-07-13T08:33:02.724Z,23.40
2018-07-13T08:35:31.053Z,23.50
2018-07-13T08:37:59.184Z,23.70
2018-07-13T08:40:27.484Z,24.00
2018-07-13T08:42:55.748Z,23.70
2018-07-13T08:47:52.025Z,23.80
2018-07-13T08:50:20.036Z,23.60
2018-07-13T08:52:48.258Z,23.80
2018-07-13T08:55:16.932Z,23.90
2018-07-13T08:57:47.522Z,24.20
2018-07-13T09:00:15.944Z,24.10
2018-07-13T09:02:44.145Z,24.00
2018-07-13T09:05:12.284Z,24.00
2018-07-13T09:10:12.489Z,24.30
2018-07-13T09:12:40.941Z,24.40
2018-07-13T09:15:10.518Z,24.50
2018-07-13T09:17:38.819Z,24.40
2018-07-13T09:20:08.782Z,24.80
2018-07-13T09:22:36.989Z,24.80
2018-07-13T09:27:33.032Z,25.00
2018-07-13T09:32:29.182Z,24.80
2018-07-13T09:34:57.496Z,24.80
2018-07-13T09:37:25.745Z,24.30
2018-07-13T09:39:53.931Z,24.20
2018-07-13T09:42:22.320Z,24.20
2018-07-13T09:44:50.489Z,24.50
2018-07-13T09:47:18.928Z,24.90
2018-07-13T09:49:47.142Z,25.00
2018-07-13T09:52:15.455Z,25.10
2018-07-13T09:54:43.606Z,25.40
2018-07-13T09:57:11.889Z,25.40
2018-07-13T09:59:40.048Z,25.60
2018-07-13T10:02:08.240Z,25.50
2018-07-13T10:04:36.516Z,25.60
2018-07-13T10:07:05.001Z,25.90
2018-07-13T10:09:33.187Z,25.80
2018-07-13T10:12:01.330Z,25.60
2018-07-13T10:14:29.741Z,25.50
2018-07-13T10:16:58.084Z,25.60
2018-07-13T10:19:26.388Z,26.10
2018-07-13T10:21:54.634Z,26.40
2018-07-13T10:24:22.871Z,26.40
2018-07-13T10:26:52.325Z,26.40
2018-07-13T10:29:23.488Z,26.40
2018-07-13T10:31:52.384Z,26.00
2018-07-13T10:34:21.020Z,26.00
2018-07-13T10:37:00.010Z,26.10
2018-07-13T10:39:28.295Z,26.30
2018-07-13T10:41:56.447Z,26.80
2018-07-13T10:44:24.621Z,26.80
2018-07-13T10:46:53.038Z,27.20
2018-07-13T10:49:21.068Z,27.00
2018-07-13T10:51:50.070Z,26.90
2018-07-13T10:54:18.364Z,26.80
2018-07-13T10:56:46.453Z,26.90
2018-07-13T10:59:14.617Z,26.80
2018-07-13T11:01:42.672Z,27.10
2018-07-13T11:04:12.216Z,27.30
2018-07-13T11:06:40.559Z,27.60
2018-07-13T11:09:09.585Z,27.40
2018-07-13T11:11:37.852Z,27.60
2018-07-13T11:14:06.147Z,27.40
2018-07-13T11:16:34.064Z,26.60
2018-07-13T11:19:02.401Z,25.90
2018-07-13T11:21:30.516Z,25.80
2018-07-13T11:23:58.612Z,25.70
2018-07-13T11:26:26.673Z,26.30
2018-07-13T11:28:55.071Z,26.60
2018-07-13T11:31:23.132Z,26.10
2018-07-13T11:33:51.307Z,25.70
2018-07-13T11:36:19.384Z,25.60
2018-07-13T11:38:47.545Z,25.10
2018-07-13T11:41:15.935Z,24.90
2018-07-13T11:43:44.008Z,25.00
2018-07-13T11:46:12.089Z,25.20
2018-07-13T11:48:40.235Z,25.50
2018-07-13T11:51:08.436Z,25.80
2018-07-13T11:53:36.830Z,26.10
2018-07-13T11:56:04.968Z,26.50
2018-07-13T11:58:33.167Z,26.50
2018-07-13T12:01:01.329Z,26.60
2018-07-13T12:03:29.518Z,26.50
2018-07-13T12:05:57.582Z,26.40
2018-07-13T12:08:25.580Z,26.00
2018-07-13T12:10:53.714Z,26.20
2018-07-13T12:13:21.812Z,25.90
2018-07-13T12:15:49.898Z,25.70
2018-07-13T12:18:17.967Z,25.90
2018-07-13T12:20:46.011Z,26.30
2018-07-13T12:23:14.178Z,26.60
2018-07-13T12:25:42.369Z,26.00
2018-07-13T12:28:10.520Z,25.60
2018-07-13T12:33:06.514Z,25.80
2018-07-13T12:35:34.574Z,25.60
2018-07-13T12:38:02.737Z,26.00
2018-07-13T12:40:31.056Z,26.30
2018-07-13T12:42:59.077Z,26.20
2018-07-13T12:45:27.106Z,26.40
2018-07-13T12:47:55.218Z,26.50
2018-07-13T12:50:23.349Z,26.80
2018-07-13T12:52:51.410Z,27.10
2018-07-13T12:55:19.552Z,27.00
2018-07-13T12:57:47.643Z,26.90
2018-07-13T13:00:15.799Z,26.90
2018-07-13T13:02:43.904Z,26.70
2018-07-13T13:05:11.927Z,26.80
2018-07-13T13:10:07.790Z,26.70
2018-07-13T13:12:35.873Z,26.40
2018-07-13T13:15:04.242Z,26.40
2018-07-13T13:17:32.351Z,26.10
2018-07-13T13:20:00.380Z,26.00
2018-07-13T13:22:28.579Z,25.70
2018-07-13T13:24:56.641Z,25.60
2018-07-13T13:27:24.933Z,25.40
2018-07-13T13:29:53.120Z,25.50
2018-07-13T13:32:21.147Z,26.10
2018-07-13T13:37:17.103Z,27.20
2018-07-13T13:39:45.206Z,27.10
2018-07-13T13:42:13.248Z,26.70
2018-07-13T13:44:41.349Z,27.10
2018-07-13T13:47:09.485Z,27.50
2018-07-13T13:49:37.719Z,27.70
2018-07-13T13:52:05.847Z,28.20
2018-07-13T13:54:33.940Z,27.90
2018-07-13T13:57:01.995Z,27.60
2018-07-13T13:59:30.040Z,27.70
2018-07-13T14:04:26.084Z,27.60
2018-07-13T14:06:54.177Z,27.50
2018-07-13T14:09:22.305Z,27.60
2018-07-13T14:11:50.527Z,27.60
2018-07-13T14:14:18.756Z,27.20
2018-07-13T14:16:46.792Z,26.90
2018-07-13T14:19:14.950Z,27.30
2018-07-13T14:24:10.894Z,27.50
2018-07-13T14:26:38.994Z,27.10
2018-07-13T14:29:07.048Z,27.40
2018-07-13T14:31:35.235Z,27.60
2018-07-13T14:34:03.496Z,27.60
2018-07-13T14:36:31.968Z,27.50
2018-07-13T14:41:28.565Z,27.90
2018-07-13T14:43:56.792Z,28.00
2018-07-13T14:48:52.899Z,27.90
2018-07-13T14:51:20.927Z,27.80
2018-07-13T14:53:49.222Z,28.00
2018-07-13T14:56:20.713Z,28.00
2018-07-13T14:58:49.754Z,27.70
2018-07-13T15:01:20.327Z,27.50
2018-07-13T15:03:48.593Z,27.70
2018-07-13T15:06:17.162Z,28.00
2018-07-13T15:08:45.050Z,28.00
2018-07-13T15:11:13.195Z,28.00
2018-07-13T15:13:41.403Z,28.00
2018-07-13T15:16:09.763Z,28.20
2018-07-13T15:18:37.857Z,27.80
2018-07-13T15:21:06.021Z,27.90
2018-07-13T15:23:34.063Z,27.80
2018-07-13T15:28:30.202Z,27.20
2018-07-13T15:30:58.324Z,27.20
2018-07-13T15:33:26.488Z,27.40
2018-07-13T15:35:54.684Z,27.60
2018-07-13T15:38:22.833Z,27.80
2018-07-13T15:40:51.247Z,28.00
2018-07-13T15:43:19.447Z,28.00
2018-07-13T15:48:15.561Z,28.10
2018-07-13T15:50:43.705Z,27.90
2018-07-13T15:53:11.827Z,27.80
2018-07-13T15:55:45.518Z,27.70
2018-07-13T15:58:13.677Z,27.90
2018-07-13T16:00:41.951Z,27.50
2018-07-13T16:03:10.320Z,27.10
2018-07-13T16:05:38.549Z,27.10
2018-07-13T16:08:06.592Z,27.40
2018-07-13T16:10:34.913Z,27.70
2018-07-13T16:13:03.255Z,27.90
2018-07-13T16:15:31.639Z,28.00
2018-07-13T16:17:59.953Z,27.70
2018-07-13T16:20:28.303Z,27.50
2018-07-13T16:22:56.433Z,27.70
2018-07-13T16:25:24.420Z,27.90
2018-07-13T16:27:52.567Z,28.10
2018-07-13T16:32:48.636Z,27.80
2018-07-13T16:35:16.727Z,27.70
2018-07-13T16:37:44.867Z,28.90
2018-07-13T16:40:13.026Z,30.70
2018-07-13T16:45:09.007Z,32.50
2018-07-13T16:47:37.264Z,33.50
2018-07-13T16:52:33.776Z,33.80
2018-07-13T16:55:01.913Z,33.00
2018-07-13T16:57:29.973Z,32.60
2018-07-13T16:59:58.166Z,32.50
2018-07-13T17:02:26.213Z,32.70
2018-07-13T17:04:54.509Z,32.20
2018-07-13T17:07:22.560Z,31.80
2018-07-13T17:09:50.781Z,31.80
2018-07-13T17:12:19.129Z,32.40
2018-07-13T17:14:47.384Z,32.60
2018-07-13T17:17:15.694Z,32.70
2018-07-13T17:19:43.877Z,32.40
2018-07-13T17:22:11.937Z,32.40
2018-07-13T17:24:40.161Z,32.60
2018-07-13T17:27:08.717Z,33.00
2018-07-13T17:29:37.845Z,32.70
2018-07-13T17:32:06.475Z,32.40
2018-07-13T17:34:34.524Z,32.10
2018-07-13T17:37:02.838Z,32.10
2018-07-13T17:39:30.990Z,32.30
2018-07-13T17:41:59.593Z,32.00
2018-07-13T17:44:28.143Z,32.10
2018-07-13T17:49:24.218Z,31.80
2018-07-13T17:51:54.848Z,32.00
2018-07-13T17:54:23.113Z,31.80
2018-07-13T17:56:51.302Z,31.80
2018-07-13T17:59:19.622Z,31.60
2018-07-13T18:01:49.750Z,31.80
2018-07-13T18:04:18.680Z,31.70
2018-07-13T18:06:46.772Z,31.50
2018-07-13T18:09:14.830Z,31.30
2018-07-13T18:11:43.205Z,30.90
2018-07-13T18:14:11.796Z,30.60
2018-07-13T18:16:41.231Z,30.30
2018-07-13T18:19:09.702Z,30.10
2018-07-13T18:21:37.943Z,29.70
2018-07-13T18:24:06.020Z,28.20
2018-07-13T18:29:02.169Z,26.50
2018-07-13T18:31:30.465Z,26.50
2018-07-13T18:33:58.520Z,26.60
2018-07-13T18:38:54.466Z,25.30
2018-07-13T18:41:26.241Z,24.80
2018-07-13T18:43:57.396Z,24.20
2018-07-13T18:46:28.937Z,23.80
2018-07-13T18:51:27.652Z,23.00
2018-07-13T18:53:55.836Z,22.70
2018-07-13T18:56:23.960Z,22.50
2018-07-13T18:58:52.163Z,22.30
2018-07-13T19:01:20.353Z,22.10
2018-07-13T19:03:48.544Z,21.80
2018-07-13T19:06:16.992Z,21.60
2018-07-13T19:08:45.297Z,21.40
2018-07-13T19:11:13.969Z,21.00
2018-07-13T19:13:43.706Z,20.70
2018-07-13T19:16:11.973Z,20.50
2018-07-13T19:18:40.033Z,20.30
2018-07-13T19:23:36.288Z,20.00
2018-07-13T19:26:04.491Z,19.90
2018-07-13T19:30:14.247Z,19.60
2018-07-13T19:32:42.383Z,19.50
2018-07-13T19:35:10.400Z,19.40
2018-07-13T19:37:38.323Z,19.20
2018-07-13T19:40:06.372Z,19.20
2018-07-13T19:42:35.377Z,19.30
2018-07-13T19:45:07.072Z,19.10
2018-07-13T19:47:38.127Z,19.10
2018-07-13T19:50:10.427Z,18.90
2018-07-13T19:52:42.235Z,18.80
2018-07-13T19:55:17.338Z,18.90
2018-07-13T19:57:49.144Z,18.80
2018-07-13T20:02:53.187Z,18.50
2018-07-13T20:05:37.327Z,18.30
2018-07-13T20:08:19.163Z,18.10
2018-07-13T20:11:00.645Z,17.90
2018-07-13T20:13:34.106Z,17.70
2018-07-13T20:16:04.973Z,17.50
2018-07-13T20:18:35.400Z,17.40
2018-07-13T20:21:06.153Z,17.50
2018-07-13T20:23:36.670Z,17.50
2018-07-13T20:26:06.580Z,17.50
2018-07-13T20:28:36.696Z,17.40
2018-07-13T20:31:08.300Z,17.30
2018-07-13T20:36:10.924Z,17.10
2018-07-13T20:38:42.753Z,17.10
2018-07-13T20:41:24.546Z,17.10
2018-07-13T20:46:25.442Z,17.00
2018-07-13T20:48:56.148Z,17.00
2018-07-13T20:53:58.903Z,16.80
2018-07-13T20:56:29.237Z,16.90
2018-07-13T20:58:58.904Z,17.00
2018-07-13T21:01:28.800Z,17.00
2018-07-13T21:06:27.329Z,16.80
2018-07-13T21:08:57.100Z,16.80
2018-07-13T21:11:26.987Z,16.60
2018-07-13T21:13:56.589Z,16.50
2018-07-13T21:16:26.142Z,16.40
2018-07-13T21:21:26.962Z,16.50
2018-07-13T21:23:57.642Z,16.50
2018-07-13T21:26:28.023Z,16.30
2018-07-13T21:28:59.787Z,16.20
2018-07-13T21:31:31.770Z,16.00
2018-07-13T21:34:03.824Z,16.00
2018-07-13T21:36:35.802Z,16.00
2018-07-13T21:39:08.605Z,15.90
2018-07-13T21:46:41.930Z,15.90
2018-07-13T21:49:13.002Z,15.80
2018-07-13T21:51:43.937Z,15.80
2018-07-13T21:54:15.220Z,15.70
2018-07-13T21:56:47.055Z,15.60
2018-07-13T21:59:19.223Z,15.50
2018-07-13T22:01:51.224Z,15.50
2018-07-13T22:04:23.523Z,15.30
2018-07-13T22:06:56.245Z,15.00
2018-07-13T22:09:28.294Z,14.90
2018-07-13T22:12:00.622Z,14.80
2018-07-13T22:14:32.271Z,14.80
2018-07-13T22:17:04.012Z,14.70
2018-07-13T22:19:35.574Z,14.70
2018-07-13T22:22:06.978Z,14.60
2018-07-13T22:24:38.205Z,14.60
2018-07-13T22:27:10.022Z,14.60
2018-07-13T22:29:41.014Z,14.60
2018-07-13T22:32:08.980Z,14.60
2018-07-13T22:34:41.613Z,14.60
2018-07-13T22:37:14.518Z,14.60
2018-07-13T22:39:44.738Z,14.50
2018-07-13T22:42:14.488Z,14.50
2018-07-13T22:44:44.280Z,14.50
2018-07-13T22:47:14.790Z,14.50
2018-07-13T22:49:44.776Z,14.50
2018-07-13T22:52:15.067Z,14.50
2018-07-13T22:54:45.269Z,14.50
2018-07-13T22:57:14.924Z,14.40
2018-07-13T22:59:44.488Z,14.40
2018-07-13T23:02:14.815Z,14.40
2018-07-13T23:04:45.165Z,14.30
2018-07-13T23:07:15.388Z,14.20
2018-07-13T23:09:45.339Z,14.20
2018-07-13T23:12:15.557Z,14.10
2018-07-13T23:14:45.760Z,14.20
2018-07-13T23:17:15.949Z,14.20
2018-07-13T23:19:46.062Z,14.10
2018-07-13T23:22:17.237Z,14.10
2018-07-13T23:24:48.984Z,14.10
2018-07-13T23:27:19.164Z,14.20
2018-07-13T23:29:49.313Z,14.30
2018-07-13T23:32:19.652Z,14.20
2018-07-13T23:34:49.726Z,14.20
2018-07-13T23:37:20.145Z,14.20
2018-07-13T23:42:20.916Z,14.20
2018-07-13T23:44:51.595Z,14.20
2018-07-13T23:47:23.142Z,14.20
2018-07-13T23:49:55.019Z,14.10
2018-07-13T23:52:26.330Z,14.10
2018-07-13T23:54:57.539Z,14.00
2018-07-13T23:59:58.636Z,14.00
